Latest Weather Observations for Giles*

IDW60801

Issued at 6:05 pm WST Saturday 20 September 2014 (issued every 30 minutes, with the page automatically refreshed every 10 minutes)

About weather observations | Map of weather stations | Latest weather observations for WA | Other Formats
Station Details ID: 013017 Name: GILES METEOROLOGICAL OFFICE Lat: -25.03 Lon: 128.30 Height: 598.0 m
Data from the previous 72 hours. | See also: Recent months at Giles*

* Giles observations are collected in the South Australia time zone, which includes daylight saving in the summer period. Therefore, Rain since 9am value is with respect to South Australia local time.

Date/Time
WST
Temp
°C
App
Temp
°C
Dew
Point
Rel
Hum
%
Delta-T
°C
Wind Press
QNH
hPa
Press
MSL
hPa
Rain
since 9 am
mm
Dir
 
Spd
km/h
Gust
km/h
Spd
kts
Gust
kts
20/06:00pm 25.0 19.3 -13.4 7 14.2 SSE 13 15 7 8 1018.5 - 0.0
20/05:30pm 27.1 20.8 -17.4 4 15.7 SSE 15 19 8 10 1018.3 - 0.0
20/05:00pm 29.7 22.1 -25.9 2 17.6 SSE 20 26 11 14 1017.9 - 0.0
20/04:30pm 30.7 23.2 -34.8 1 18.4 S 19 28 10 15 1017.8 1015.4 0.0
20/04:00pm 31.3 23.2 -33.2 1 18.7 S 22 30 12 16 1017.6 - 0.0
20/03:30pm 31.9 23.2 -25.4 2 18.8 S 26 35 14 19 1017.2 - 0.0
20/03:00pm 32.3 25.3 -16.4 3 18.5 SSE 19 24 10 13 1017.0 - 0.0
20/02:30pm 32.5 24.6 -14.0 4 18.4 S 24 43 13 23 1016.9 - 0.0
20/02:00pm 31.7 24.5 -10.0 6 17.5 S 22 37 12 20 1017.2 - 0.0
20/01:30pm 32.6 25.4 -9.9 6 18.0 SSE 22 35 12 19 1017.4 1015.0 0.0
20/01:00pm 31.9 26.7 -6.4 8 17.1 S 13 24 7 13 1017.7 - 0.0
20/12:30pm 31.9 24.2 -6.4 8 17.1 SSE 26 39 14 21 1018.1 - 0.0
20/12:00pm 31.6 25.3 -5.7 8 16.8 SSE 19 37 10 20 1018.5 - 0.0
20/11:30am 31.0 23.8 -5.4 9 16.4 S 24 30 13 16 1019.0 - 0.0
20/11:00am 31.1 24.3 -5.1 9 16.4 SSE 22 35 12 19 1019.4 - 0.0
20/10:30am 30.4 24.1 -4.0 10 15.8 SSE 20 32 11 17 1019.6 1017.3 0.0
20/10:00am 30.0 22.6 -3.7 11 15.5 SE 26 37 14 20 1020.0 - 0.0
20/09:30am 28.6 20.8 -4.2 11 14.8 SSE 28 33 15 18 1020.2 - 0.0
20/09:00am 27.6 20.7 -5.7 11 14.5 ESE 22 30 12 16 1020.4 - 0.0
20/08:30am 26.3 19.0 -6.3 11 13.9 ESE 24 33 13 18 1020.4 - 0.0
20/08:00am 24.4 17.8 -3.0 16 12.2 ESE 22 30 12 16 1020.6 - 0.0
20/07:30am 22.7 16.2 -2.6 18 11.2 ESE 22 30 12 16 1020.5 1018.2 0.0
20/07:00am 20.6 15.2 -1.0 23 9.7 ESE 17 24 9 13 1020.1 - 0.0
20/06:30am 18.6 13.4 -0.1 28 8.4 SSE 17 22 9 12 1019.8 - 0.0
20/06:00am 17.4 12.1 -0.5 29 7.9 SE 17 20 9 11 1019.3 - 0.0
20/05:30am 16.3 11.4 -0.4 32 7.3 ESE 15 19 8 10 1019.0 - 0.0
20/05:00am 16.2 11.7 -0.2 32 7.2 E 13 15 7 8 1018.7 - 0.0
20/04:30am 16.7 11.8 -0.7 30 7.6 ESE 15 17 8 9 1018.2 1015.9 0.0
20/04:00am 17.0 12.5 -0.5 30 7.7 ESE 13 17 7 9 1018.0 - 0.0
20/03:30am 17.4 12.9 -0.5 29 7.9 E 13 17 7 9 1017.6 - 0.0
20/03:00am 18.6 13.7 -0.8 27 8.6 SE 15 20 8 11 1017.2 - 0.0
20/02:30am 19.3 13.9 -1.3 25 9.1 ESE 17 19 9 10 1016.9 - 0.0
20/02:00am 19.7 14.6 -1.7 23 9.4 ESE 15 17 8 9 1016.9 - 0.0
20/01:30am 19.2 14.4 -2.3 23 9.3 SE 13 17 7 9 1016.9 1014.6 0.0
20/01:00am 19.6 15.3 -1.9 23 9.4 ESE 11 13 6 7 1016.9 - 0.0
20/12:30am 20.0 15.2 -2.2 22 9.7 ESE 13 13 7 7 1017.0 - 0.0
20/12:00am 21.1 16.4 -1.9 21 10.2 SE 13 15 7 8 1017.0 - 0.0
 
Date/Time
WST
Temp
°C
App
Temp
°C
Dew
Point
Rel
Hum
%
Delta-T
°C
Wind Press
QNH
hPa
Press
MSL
hPa
Rain
since 9 am
mm
Dir
 
Spd
km/h
Gust
km/h
Spd
kts
Gust
kts
19/11:30pm 22.3 17.1 -2.6 19 11.0 E 15 17 8 9 1017.0 - 0.0
19/11:00pm 22.3 17.5 -2.6 19 11.0 ESE 13 15 7 8 1017.1 - 0.0
19/10:30pm 22.8 17.9 -3.2 17 11.4 ESE 13 15 7 8 1017.2 1014.9 0.0
19/10:00pm 22.8 18.0 -2.7 18 11.3 ESE 13 19 7 10 1017.5 - 0.0
19/09:30pm 22.6 17.8 -2.3 19 11.1 ESE 13 15 7 8 1017.6 - 0.0
19/09:00pm 23.2 18.4 -2.7 17 11.5 SE 13 15 7 8 1017.6 - 0.0
19/08:30pm 23.3 18.9 -2.4 18 11.5 SE 11 13 6 7 1017.7 - 0.0
19/08:00pm 24.5 20.1 -2.2 17 12.1 SE 11 13 6 7 1017.8 - 0.0
19/07:30pm 24.8 20.4 -2.3 16 12.3 SE 11 13 6 7 1017.7 1015.3 0.0
19/07:00pm 25.4 21.4 -2.2 16 12.6 SSE 9 11 5 6 1017.2 - 0.0
19/06:30pm 26.8 21.9 -3.2 13 13.6 SSW 13 15 7 8 1016.9 - 0.0
19/06:00pm 28.4 23.8 -4.2 11 14.7 SSW 11 17 6 9 1016.4 - 0.0
19/05:30pm 29.4 24.8 -3.8 11 15.2 SSW 11 13 6 7 1016.0 - 0.0
19/05:00pm 31.3 25.8 -5.4 9 16.6 SSW 15 20 8 11 1015.4 - 0.0
19/04:30pm 31.8 25.2 -6.7 8 17.1 SW 20 30 11 16 1015.1 1012.8 0.0
19/04:00pm 32.3 25.9 -6.7 7 17.4 SW 19 26 10 14 1014.8 - 0.0
19/03:30pm 33.2 27.1 -7.2 7 18.0 WSW 17 20 9 11 1014.6 - 0.0
19/03:00pm 33.2 25.8 -7.8 7 18.1 WSW 24 35 13 19 1014.4 - 0.0
19/02:30pm 32.7 26.7 -6.5 7 17.6 WSW 17 26 9 14 1014.5 - 0.0
19/02:00pm 32.7 26.7 -6.5 7 17.6 W 17 24 9 13 1014.7 - 0.0
19/01:30pm 33.7 27.6 -7.2 7 18.3 WNW 17 32 9 17 1014.9 1012.6 0.0
19/01:00pm 33.6 25.3 -9.1 6 18.5 W 28 44 15 24 1015.3 - 0.0
19/12:53pm 33.7 24.5 -11.1 5 18.8 W 32 44 17 24 1015.4 - 0.0
19/12:30pm 33.0 26.7 -6.0 8 17.7 SSW 19 26 10 14 1015.8 - 0.0
19/12:00pm 32.3 27.8 -3.3 10 16.8 S 11 19 6 10 1016.3 - 0.0
19/11:30am 31.5 27.1 -2.7 11 16.2 W 11 19 6 10 1016.8 - 0.0
19/11:00am 30.6 25.9 -1.9 12 15.5 WNW 13 20 7 11 1017.2 - 0.0
19/10:30am 30.1 26.5 -1.8 12 15.2 WNW 7 17 4 9 1017.6 1015.2 0.0
19/10:00am 29.3 25.9 -0.8 14 14.5 N 7 15 4 8 1018.0 - 0.0
19/09:30am 28.8 25.4 -0.8 14 14.2 NNE 7 13 4 7 1018.1 - 0.0
19/09:00am 27.3 24.0 -0.2 16 13.2 NNE 7 11 4 6 1018.2 - 0.0
19/08:30am 25.8 22.5 0.4 19 12.2 E 7 9 4 5 1018.3 - 0.0
19/08:00am 24.3 19.9 0.6 21 11.3 E 13 17 7 9 1018.4 - 0.0
19/07:30am 22.4 17.2 0.0 22 10.4 E 17 24 9 13 1018.4 1016.1 0.0
19/07:00am 20.8 15.2 -0.2 24 9.6 E 19 26 10 14 1018.1 - 0.0
19/06:30am 18.6 13.8 0.3 29 8.3 E 15 22 8 12 1017.9 - 0.0
19/06:00am 16.6 12.3 1.2 35 7.0 E 13 19 7 10 1017.6 - 0.0
19/05:30am 15.4 11.2 1.8 40 6.2 E 13 15 7 8 1017.2 - 0.0
19/05:00am 15.2 11.5 2.4 42 5.9 E 11 13 6 7 1017.1 - 0.0
19/04:30am 15.3 11.2 2.2 41 6.0 ESE 13 15 7 8 1016.9 1014.6 0.0
19/04:00am 16.4 11.9 2.1 38 6.6 SE 15 19 8 10 1016.4 - 0.0
19/03:30am 17.0 12.9 2.2 37 6.9 ESE 13 15 7 8 1015.9 - 0.0
19/03:00am 17.3 12.8 2.0 35 7.1 SE 15 17 8 9 1015.7 - 0.0
19/02:30am 18.6 13.7 1.7 32 7.9 ESE 17 22 9 12 1015.7 - 0.0
19/02:00am 19.5 14.5 1.6 30 8.4 ESE 17 22 9 12 1015.9 - 0.0
19/01:30am 20.0 15.0 1.5 29 8.7 E 17 20 9 11 1016.0 1013.6 0.0
19/01:00am 19.3 15.5 1.6 30 8.3 SSE 11 17 6 9 1016.1 - 0.0
19/12:30am 20.0 14.6 1.5 29 8.7 E 19 24 10 13 1015.9 - 0.0
19/12:00am 19.9 15.8 2.0 30 8.5 E 13 17 7 9 1016.1 - 0.0
 
Date/Time
WST
Temp
°C
App
Temp
°C
Dew
Point
Rel
Hum
%
Delta-T
°C
Wind Press
QNH
hPa
Press
MSL
hPa
Rain
since 9 am
mm
Dir
 
Spd
km/h
Gust
km/h
Spd
kts
Gust
kts
18/11:30pm 18.8 14.7 2.3 33 7.8 ESE 13 15 7 8 1016.3 - 0.0
18/11:00pm 19.7 14.3 2.3 31 8.3 E 20 30 11 16 1016.3 - 0.0
18/10:30pm 20.0 15.9 2.1 30 8.5 E 13 17 7 9 1016.7 1014.4 0.0
18/10:00pm 20.5 15.6 2.0 29 8.8 ESE 17 24 9 13 1016.8 - 0.0
18/09:30pm 21.2 15.7 2.0 28 9.2 ESE 20 28 11 15 1017.0 - 0.0
18/09:00pm 21.9 16.4 1.6 26 9.7 ESE 20 26 11 14 1017.1 - 0.0
18/08:30pm 22.8 16.8 1.2 24 10.3 ESE 22 28 12 15 1017.2 - 0.0
18/08:00pm 23.2 17.6 1.3 23 10.5 ESE 20 30 11 16 1017.2 - 0.0
18/07:30pm 23.6 18.0 1.0 22 10.8 ESE 20 28 11 15 1017.0 1014.7 0.0
18/07:00pm 24.3 18.7 1.0 21 11.2 ESE 20 28 11 15 1016.8 - 0.0
18/06:30pm 25.6 18.7 0.0 18 12.2 SE 26 39 14 21 1016.3 - 0.0
18/06:00pm 27.0 19.6 -0.9 16 13.2 SE 28 39 15 21 1015.8 - 0.0
18/05:30pm 28.1 20.6 -1.6 14 14.0 SSE 28 43 15 23 1015.3 - 0.0
18/05:17pm 28.7 21.1 -2.3 13 14.5 S 28 41 15 22 1014.9 - 0.0
18/05:00pm 31.5 27.0 -6.5 8 16.9 W 9 17 5 9 1014.6 - 0.0
18/04:30pm 32.6 25.8 -12.2 5 18.3 WNW 19 28 10 15 1014.3 1011.9 0.0
18/04:00pm 33.2 26.9 -10.1 5 18.4 WNW 17 26 9 14 1014.2 - 0.0
18/03:30pm 33.6 28.0 -10.6 5 18.7 W 13 20 7 11 1014.0 - 0.0
18/03:00pm 32.8 25.7 -14.1 4 18.6 NW 20 32 11 17 1014.3 - 0.0
18/02:30pm 33.6 27.2 -11.5 5 18.8 WNW 17 26 9 14 1014.3 - 0.0
18/02:00pm 34.9 28.3 -15.0 3 19.9 NW 17 39 9 21 1014.5 - 0.0
18/01:30pm 33.0 27.2 -8.7 6 18.1 NNW 15 28 8 15 1014.7 1012.3 0.0
18/01:00pm 33.3 25.3 -10.5 5 18.5 N 26 41 14 22 1015.1 - 0.0
18/12:30pm 32.7 24.9 -7.9 7 17.8 N 26 35 14 19 1015.7 - 0.0
18/12:00pm 32.5 23.3 -8.0 7 17.7 N 33 46 18 25 1016.2 - 0.0
18/11:30am 31.7 23.1 -7.8 7 17.2 N 30 41 16 22 1016.7 - 0.0
18/11:00am 30.2 21.1 -6.9 8 16.2 N 33 46 18 25 1017.2 - 0.0
18/10:30am 28.9 20.0 -5.4 10 15.2 N 33 44 18 24 1017.8 1015.4 0.0
18/10:00am 28.7 18.5 -7.3 9 15.4 N 39 48 21 26 1018.1 - 0.0
18/09:30am 28.9 19.9 -6.6 9 15.4 NNE 33 46 18 25 1018.1 - 0.0
18/09:00am 27.1 17.5 -4.4 12 14.0 NNE 37 52 20 28 1018.4 - 0.0
18/08:30am 26.6 15.7 -6.5 11 14.1 NNE 43 56 23 30 1018.3 - 0.0
18/08:20am 26.9 16.8 -6.1 11 14.2 NNE 39 57 21 31 1018.2 - 0.0
18/08:00am 27.0 17.6 -6.3 11 14.3 NNE 35 50 19 27 1017.9 - 0.0
18/07:43am 26.9 19.0 -5.0 12 14.0 NNE 28 46 15 25 1018.4 - 0.0
18/07:30am 26.8 20.1 -4.2 13 13.8 NNE 22 33 12 18 1018.5 1016.2 0.0
18/07:00am 23.9 20.1 -1.1 19 11.5 ESE 9 13 5 7 1018.6 - 0.0
18/06:30am 21.7 16.8 -0.7 22 10.2 SE 15 20 8 11 1018.3 - 0.0
18/06:00am 21.1 16.2 -0.7 23 9.9 SE 15 20 8 11 1018.0 - 0.0
18/05:30am 20.5 15.1 -1.2 23 9.7 ESE 17 20 9 11 1017.8 - 0.0
18/05:00am 20.8 15.4 -1.0 23 9.8 E 17 24 9 13 1017.8 - 0.0
18/04:30am 20.7 15.4 -0.4 24 9.6 E 17 20 9 11 1017.5 1015.1 0.0
18/04:00am 20.8 15.1 -1.0 23 9.8 E 19 24 10 13 1017.2 - 0.0
18/03:30am 17.2 14.0 0.9 33 7.4 ESE 7 11 4 6 1017.4 - 0.0
18/03:00am 17.8 14.6 0.9 32 7.7 ESE 7 9 4 5 1017.4 - 0.0
18/02:30am 19.2 15.6 0.7 29 8.5 ENE 9 15 5 8 1017.1 - 0.0
18/02:00am 19.6 14.7 -0.3 26 9.0 E 15 19 8 10 1017.2 - 0.0
18/01:30am 19.1 13.8 -0.9 26 8.9 E 17 20 9 11 1017.1 1014.8 0.0
18/01:00am 20.5 15.1 -1.2 23 9.7 E 17 20 9 11 1017.4 - 0.0
18/12:30am 21.4 16.1 -0.9 22 10.1 E 17 22 9 12 1017.7 - 0.0
18/12:00am 21.9 16.2 -1.0 21 10.4 E 19 24 10 13 1017.9 - 0.0
 
Date/Time
WST
Temp
°C
App
Temp
°C
Dew
Point
Rel
Hum
%
Delta-T
°C
Wind Press
QNH
hPa
Press
MSL
hPa
Rain
since 9 am
mm
Dir
 
Spd
km/h
Gust
km/h
Spd
kts
Gust
kts
17/11:30pm 22.3 15.9 -1.4 20 10.7 E 22 32 12 17 1018.1 - 0.0
17/11:00pm 21.3 15.5 -1.5 21 10.2 E 19 22 10 12 1018.7 - 0.0
17/10:30pm 20.9 14.9 -1.6 22 10.0 E 20 24 11 13 1018.7 1016.4 0.0
17/10:00pm 21.7 15.7 -1.9 20 10.5 E 20 28 11 15 1018.8 - 0.0
17/09:30pm 21.2 15.7 -2.2 20 10.3 E 17 22 9 12 1019.0 - 0.0
17/09:00pm 21.6 15.6 -3.0 19 10.7 E 19 22 10 12 1019.2 - 0.0
17/08:30pm 21.5 16.3 -2.8 19 10.6 E 15 19 8 10 1019.2 - 0.0
17/08:00pm 21.8 16.1 -3.4 18 10.9 E 17 20 9 11 1018.8 - 0.0
17/07:30pm 23.3 17.6 -3.4 16 11.7 E 17 19 9 10 1018.5 1016.2 0.0
17/07:00pm 22.7 17.8 -3.5 17 11.4 ESE 13 15 7 8 1018.4 - 0.0
17/06:30pm 25.1 20.2 -3.4 15 12.7 E 13 15 7 8 1018.0 - 0.0
17/06:00pm 26.0 21.7 -2.0 15 12.9 ENE 11 13 6 7 1017.7 - 0.0
17/05:30pm 27.1 23.2 -1.5 15 13.4 NE 9 13 5 7 1017.5 - 0.0
17/05:00pm 28.4 24.4 -2.2 13 14.3 NNE 9 13 5 7 1017.1 - 0.0

Other Formats:

Comma delimited format used in spreadsheet applications
http://www.bom.gov.au/fwo/IDW60801/IDW60801.94461.axf

JavaScript Object Notation format (JSON) in row-major order
http://www.bom.gov.au/fwo/IDW60801/IDW60801.94461.json